Time;durP1;ratioP1;P1;durP2;ratioP2;P2;SDS_P1;SDS_P2;PMS_P1;PMS_P2;Temp;Humidity;BMP_temperature;BMP_pressure;BME280_temperature;BME280_humidity;BME280_pressure;Samples;Min_cycle;Max_cycle;Signal;HPM_P1;HPM_P2
2022/09/15 00:02:16;;;;;;;6.15;2.95;;;13.00;99.90;;;;;;4998128;28;20050;-86
2022/09/15 00:04:44;;;;;;;6.45;3.17;;;13.10;99.90;;;;;;4999085;28;20111;-87
2022/09/15 00:07:10;;;;;;;9.13;3.42;;;13.10;99.90;;;;;;5014981;28;20515;-86
2022/09/15 00:09:36;;;;;;;5.28;3.25;;;13.10;99.90;;;;;;4998889;28;20058;-86
2022/09/15 00:12:02;;;;;;;9.95;3.38;;;13.10;99.90;;;;;;4999541;28;20381;-87
2022/09/15 00:14:28;;;;;;;7.53;3.78;;;13.20;99.90;;;;;;4998438;28;20053;-86
2022/09/15 00:16:53;;;;;;;7.25;3.25;;;13.30;99.90;;;;;;5015013;28;20052;-86
2022/09/15 00:19:19;;;;;;;9.05;3.53;;;13.30;99.90;;;;;;5015752;28;20132;-86
2022/09/15 00:21:47;;;;;;;8.57;3.30;;;13.40;99.90;;;;;;4998237;28;20138;-86
2022/09/15 00:24:13;;;;;;;7.90;3.17;;;13.40;99.90;;;;;;5014764;28;20567;-86
2022/09/15 00:26:38;;;;;;;5.82;2.58;;;13.50;99.90;;;;;;4982179;28;20067;-86
2022/09/15 00:29:04;;;;;;;8.02;3.03;;;13.50;99.90;;;;;;4998004;28;20084;-87
2022/09/15 00:31:30;;;;;;;6.43;2.38;;;13.60;99.90;;;;;;4982265;28;20045;-86
2022/09/15 00:33:58;;;;;;;9.77;2.75;;;13.60;99.90;;;;;;4982148;28;20053;-86
2022/09/15 00:36:24;;;;;;;9.55;2.70;;;13.70;99.90;;;;;;4982228;28;20458;-86
2022/09/15 00:38:50;;;;;;;7.55;2.40;;;13.70;99.90;;;;;;4998289;28;20108;-86
2022/09/15 00:41:19;;;;;;;11.13;3.08;;;13.70;99.90;;;;;;4998966;28;20469;-87
2022/09/15 00:43:53;;;;;;;7.50;2.65;;;13.70;99.90;;;;;;4998214;28;20046;-86
2022/09/15 00:46:22;;;;;;;6.47;1.88;;;13.70;99.90;;;;;;4998067;28;20091;-86
2022/09/15 00:49:04;;;;;;;5.80;2.00;;;13.70;99.90;;;;;;4998023;28;20050;-86
2022/09/15 00:51:55;;;;;;;9.70;2.22;;;13.70;99.90;;;;;;4998354;28;20057;-86
2022/09/15 00:54:24;;;;;;;6.32;1.70;;;13.70;99.90;;;;;;4997942;28;20057;-86
2022/09/15 00:56:53;;;;;;;6.22;1.90;;;13.70;99.90;;;;;;4997592;28;20104;-86
2022/09/15 00:59:23;;;;;;;6.38;1.83;;;13.70;99.90;;;;;;5015030;28;20054;-86
2022/09/15 01:02:12;;;;;;;10.55;1.98;;;13.70;99.90;;;;;;4997801;28;20049;-86
2022/09/15 01:04:37;;;;;;;8.32;2.28;;;13.70;99.90;;;;;;4998634;28;20132;-86
2022/09/15 01:07:05;;;;;;;5.97;1.60;;;13.60;99.90;;;;;;5014616;28;20120;-86
2022/09/15 01:09:39;;;;;;;7.22;1.75;;;13.70;99.90;;;;;;4997707;28;20123;-86
2022/09/15 01:12:05;;;;;;;7.82;1.70;;;13.80;99.90;;;;;;5014230;28;20132;-86
2022/09/15 01:14:31;;;;;;;9.40;1.95;;;13.80;99.90;;;;;;5013746;28;20149;-86
2022/09/15 01:17:10;;;;;;;8.52;1.70;;;13.80;99.90;;;;;;4997592;28;20042;-86
2022/09/15 01:19:42;;;;;;;8.35;2.05;;;13.80;99.90;;;;;;4998368;28;20136;-86
2022/09/15 01:22:16;;;;;;;12.55;2.00;;;13.80;99.90;;;;;;4997104;28;20057;-86
2022/09/15 01:25:26;;;;;;;6.75;1.80;;;13.80;99.90;;;;;;5014462;28;20120;-86
2022/09/15 01:28:00;;;;;;;9.60;2.15;;;13.80;99.90;;;;;;4952323;28;20049;-86
2022/09/15 01:30:34;;;;;;;5.88;1.73;;;13.80;99.90;;;;;;5013632;28;20053;-86
2022/09/15 01:33:29;;;;;;;6.22;1.80;;;13.70;99.90;;;;;;5013972;28;20050;-86
2022/09/15 01:36:26;;;;;;;9.75;2.00;;;13.70;99.90;;;;;;4998094;28;20052;-86
2022/09/15 01:39:09;;;;;;;4.57;1.60;;;13.70;99.90;;;;;;4984004;28;20053;-86
2022/09/15 01:41:49;;;;;;;5.65;1.77;;;13.70;99.90;;;;;;4997129;28;20049;-86
2022/09/15 01:44:21;;;;;;;5.65;1.70;;;13.60;99.90;;;;;;5013207;28;20042;-86
2022/09/15 01:46:53;;;;;;;10.97;1.70;;;13.60;99.90;;;;;;5013327;28;20042;-86
2022/09/15 01:49:29;;;;;;;8.52;2.08;;;13.60;99.90;;;;;;4997431;28;20064;-86
2022/09/15 01:51:54;;;;;;;5.30;1.70;;;13.70;99.90;;;;;;4997392;28;20057;-86
2022/09/15 01:54:34;;;;;;;8.20;1.60;;;13.50;99.90;;;;;;4996867;28;20161;-86
2022/09/15 01:57:01;;;;;;;8.57;1.65;;;13.60;99.90;;;;;;4997176;28;20046;-86
2022/09/15 01:59:27;;;;;;;9.18;1.80;;;13.50;99.90;;;;;;4996870;28;20443;-86
2022/09/15 02:02:25;;;;;;;5.82;1.60;;;13.50;99.90;;;;;;4997719;28;20046;-86
2022/09/15 02:05:00;;;;;;;6.25;1.60;;;13.50;99.90;;;;;;4997724;28;20053;-86
2022/09/15 02:07:49;;;;;;;6.75;1.90;;;13.40;99.90;;;;;;5013036;28;20041;-86
2022/09/15 02:10:40;;;;;;;7.10;1.70;;;13.30;99.90;;;;;;4996577;28;20081;-86
2022/09/15 02:13:15;;;;;;;7.70;2.00;;;13.30;99.90;;;;;;4997005;28;20049;-86
2022/09/15 02:15:50;;;;;;;9.10;2.20;;;13.40;99.90;;;;;;5013909;28;20104;-86
2022/09/15 02:18:33;;;;;;;10.02;2.17;;;13.50;99.90;;;;;;4997552;28;20128;-86
2022/09/15 02:21:17;;;;;;;9.82;2.22;;;13.60;99.90;;;;;;5014111;28;20058;-86
2022/09/15 02:23:53;;;;;;;10.60;2.38;;;13.60;99.90;;;;;;4996900;28;20081;-86
2022/09/15 02:26:25;;;;;;;12.10;2.92;;;13.70;99.90;;;;;;4998300;28;20042;-86
2022/09/15 02:28:55;;;;;;;14.70;2.28;;;13.70;99.90;;;;;;5000347;28;20061;-86
2022/09/15 02:31:25;;;;;;;10.80;2.78;;;13.70;99.90;;;;;;5000615;28;20049;-86
2022/09/15 02:33:59;;;;;;;8.05;2.03;;;13.60;99.90;;;;;;5001433;28;20092;-86
2022/09/15 02:36:28;;;;;;;10.05;1.88;;;13.60;99.90;;;;;;5016985;28;20507;-86
2022/09/15 02:38:59;;;;;;;8.70;2.15;;;13.60;99.90;;;;;;5000436;28;20057;-86
2022/09/15 02:41:26;;;;;;;11.60;2.30;;;13.60;99.90;;;;;;5017572;28;20108;-86
2022/09/15 02:43:51;;;;;;;6.95;1.75;;;13.60;99.90;;;;;;5016757;28;20065;-86
2022/09/15 02:46:22;;;;;;;8.70;1.80;;;13.50;99.90;;;;;;5001051;28;20041;-86
2022/09/15 02:48:48;;;;;;;8.43;2.20;;;13.60;99.90;;;;;;5017651;28;20050;-86
2022/09/15 02:51:16;;;;;;;9.93;2.55;;;13.50;99.90;;;;;;5000260;28;20050;-86
2022/09/15 02:53:45;;;;;;;6.75;1.77;;;13.50;99.90;;;;;;5016819;28;20054;-86
2022/09/15 02:56:11;;;;;;;7.00;2.00;;;13.40;99.90;;;;;;5016649;28;20119;-86
2022/09/15 02:58:36;;;;;;;9.35;2.17;;;13.40;99.90;;;;;;4999857;28;20493;-85
2022/09/15 03:01:13;;;;;;;8.00;2.20;;;13.40;99.90;;;;;;5000996;28;20056;-86
2022/09/15 03:03:39;;;;;;;8.32;1.88;;;13.40;99.90;;;;;;5001179;28;20086;-86
2022/09/15 03:06:19;;;;;;;7.47;2.05;;;13.40;99.90;;;;;;4967797;28;20054;-85
2022/09/15 03:08:57;;;;;;;10.60;1.85;;;13.40;99.90;;;;;;5000706;28;20045;-86
2022/09/15 03:11:25;;;;;;;8.45;1.60;;;13.30;99.90;;;;;;5016992;28;20041;-86
2022/09/15 03:14:00;;;;;;;8.15;1.70;;;13.30;99.90;;;;;;4983933;28;20038;-86
2022/09/15 03:16:28;;;;;;;9.35;1.98;;;13.20;99.90;;;;;;5016133;28;20452;-86
2022/09/15 03:18:55;;;;;;;7.97;1.83;;;13.20;99.90;;;;;;5016105;28;20540;-86
2022/09/15 03:21:21;;;;;;;7.38;1.98;;;13.20;99.90;;;;;;4999950;28;20080;-86
2022/09/15 03:23:47;;;;;;;6.97;1.50;;;13.10;99.90;;;;;;5016021;28;20045;-86
2022/09/15 03:26:13;;;;;;;6.95;1.95;;;13.10;99.90;;;;;;4999400;28;20048;-85
2022/09/15 03:28:40;;;;;;;7.18;1.80;;;13.10;99.90;;;;;;5000139;28;20142;-86
2022/09/15 03:31:07;;;;;;;8.38;2.13;;;13.10;99.90;;;;;;4983347;28;20103;-86
2022/09/15 03:33:32;;;;;;;10.18;2.67;;;13.10;99.90;;;;;;4983130;28;20050;-86
2022/09/15 03:35:58;;;;;;;8.43;1.88;;;13.00;99.90;;;;;;5015763;28;20046;-86
2022/09/15 03:38:25;;;;;;;8.60;2.25;;;13.00;99.90;;;;;;4999385;28;20083;-86
2022/09/15 03:41:05;;;;;;;7.90;1.75;;;13.00;99.90;;;;;;4999284;28;20177;-86
2022/09/15 03:43:31;;;;;;;9.38;1.92;;;13.00;99.90;;;;;;5000174;28;20147;-86
2022/09/15 03:45:57;;;;;;;7.03;2.05;;;13.10;99.90;;;;;;4998727;28;20504;-85
2022/09/15 03:48:26;;;;;;;9.57;2.03;;;13.10;99.90;;;;;;4998982;28;20507;-85
2022/09/15 03:50:52;;;;;;;8.40;1.95;;;13.20;99.90;;;;;;4999611;28;20049;-86
2022/09/15 03:53:19;;;;;;;5.80;1.70;;;13.20;99.90;;;;;;4983031;28;20045;-86
2022/09/15 03:55:45;;;;;;;6.15;1.48;;;13.20;99.90;;;;;;5015220;28;20499;-86
2022/09/15 03:58:12;;;;;;;9.07;1.60;;;13.20;99.90;;;;;;5015119;28;20046;-86
2022/09/15 04:00:39;;;;;;;11.48;2.63;;;13.20;99.90;;;;;;4999056;28;20056;-86
2022/09/15 04:03:05;;;;;;;9.27;2.03;;;13.20;99.90;;;;;;4998961;28;20103;-85
2022/09/15 04:05:31;;;;;;;5.25;1.63;;;13.20;99.90;;;;;;4998907;28;20096;-85
2022/09/15 04:07:57;;;;;;;7.28;1.73;;;13.20;99.90;;;;;;5015705;28;20488;-86
2022/09/15 04:10:23;;;;;;;13.18;2.00;;;13.20;99.90;;;;;;4982490;28;20046;-86
2022/09/15 04:12:51;;;;;;;7.10;2.80;;;13.20;99.90;;;;;;4983357;28;20046;-86
2022/09/15 04:15:18;;;;;;;4.80;1.50;;;13.20;99.90;;;;;;5014984;28;20053;-86
2022/09/15 04:17:43;;;;;;;8.23;1.83;;;13.20;99.90;;;;;;4982822;28;20038;-86
2022/09/15 04:20:09;;;;;;;9.50;1.88;;;13.20;99.90;;;;;;4998704;28;20527;-85
2022/09/15 04:22:35;;;;;;;7.13;1.73;;;13.10;99.90;;;;;;5014607;28;20044;-85
2022/09/15 04:25:03;;;;;;;9.65;1.92;;;13.10;99.90;;;;;;5014764;28;20081;-85
2022/09/15 04:27:33;;;;;;;8.70;2.10;;;13.10;99.90;;;;;;4998165;28;20046;-86
2022/09/15 04:29:59;;;;;;;9.23;2.10;;;13.10;99.90;;;;;;4998699;28;20046;-86
2022/09/15 04:32:27;;;;;;;6.35;2.05;;;13.00;99.90;;;;;;5014587;28;20050;-85
2022/09/15 04:34:52;;;;;;;6.15;1.88;;;12.90;99.90;;;;;;5014711;28;20396;-86
2022/09/15 04:37:18;;;;;;;9.68;2.45;;;12.90;99.90;;;;;;5014927;28;20050;-85
2022/09/15 04:39:44;;;;;;;7.43;1.70;;;12.90;99.90;;;;;;4998565;28;20491;-86
2022/09/15 04:42:09;;;;;;;8.32;2.15;;;12.90;99.90;;;;;;5014449;28;20121;-86
2022/09/15 04:44:35;;;;;;;6.97;1.60;;;12.80;99.90;;;;;;4998468;28;20469;-85
2022/09/15 04:47:01;;;;;;;6.43;1.80;;;12.80;99.90;;;;;;4998806;28;20351;-85
2022/09/15 04:49:27;;;;;;;9.65;2.10;;;12.70;99.90;;;;;;4981459;28;20394;-85
2022/09/15 04:51:54;;;;;;;6.40;2.03;;;12.70;99.90;;;;;;4982461;28;20061;-85
2022/09/15 04:54:20;;;;;;;9.90;2.33;;;12.70;99.90;;;;;;4997991;28;20061;-86
2022/09/15 04:56:48;;;;;;;13.52;2.40;;;12.80;99.90;;;;;;5013926;28;20049;-86
2022/09/15 04:59:16;;;;;;;7.32;1.98;;;12.80;99.90;;;;;;4998319;28;20037;-86
2022/09/15 05:01:42;;;;;;;7.75;1.92;;;12.90;99.90;;;;;;5015013;28;20440;-86
2022/09/15 05:04:08;;;;;;;10.07;2.40;;;13.00;99.90;;;;;;5014180;28;20050;-86
2022/09/15 05:06:34;;;;;;;7.13;1.85;;;12.90;99.90;;;;;;5014027;28;20072;-85
2022/09/15 05:09:01;;;;;;;7.18;2.03;;;12.90;99.90;;;;;;4981740;28;20046;-85
2022/09/15 05:11:29;;;;;;;8.10;1.90;;;12.90;99.90;;;;;;4997527;28;20103;-85
2022/09/15 05:13:55;;;;;;;8.55;2.25;;;12.90;99.90;;;;;;4997627;28;20100;-85
2022/09/15 05:16:24;;;;;;;12.15;2.08;;;12.90;99.90;;;;;;4998535;28;20049;-86
2022/09/15 05:18:53;;;;;;;9.05;1.90;;;12.80;99.90;;;;;;5013844;28;20133;-85
2022/09/15 05:21:20;;;;;;;5.78;1.75;;;12.80;99.90;;;;;;5013652;28;20477;-86
2022/09/15 05:23:47;;;;;;;9.20;1.90;;;12.80;99.90;;;;;;4997549;28;20057;-85
2022/09/15 05:26:15;;;;;;;7.68;1.90;;;12.70;99.90;;;;;;4997455;28;20046;-85
2022/09/15 05:28:41;;;;;;;10.90;2.00;;;12.70;99.90;;;;;;5013585;28;20046;-85
2022/09/15 05:31:11;;;;;;;11.60;2.47;;;12.60;99.90;;;;;;5013686;28;20057;-85
2022/09/15 05:33:37;;;;;;;13.50;2.28;;;12.60;99.90;;;;;;4998118;28;20049;-85
2022/09/15 05:36:03;;;;;;;7.70;1.85;;;12.50;99.90;;;;;;4996951;28;20559;-85
2022/09/15 05:38:30;;;;;;;11.93;2.25;;;12.50;99.90;;;;;;4981027;28;20049;-85
2022/09/15 05:41:07;;;;;;;7.28;1.80;;;12.50;99.90;;;;;;4997854;28;20498;-85
2022/09/15 05:43:34;;;;;;;9.68;2.40;;;12.40;99.90;;;;;;4997239;28;20045;-85
2022/09/15 05:46:04;;;;;;;7.90;2.05;;;12.40;99.90;;;;;;5013432;28;20526;-85
2022/09/15 05:48:30;;;;;;;5.80;2.00;;;12.40;99.90;;;;;;5013442;28;20054;-85
2022/09/15 05:50:57;;;;;;;7.68;2.00;;;12.50;99.90;;;;;;4996936;28;20054;-85
2022/09/15 05:53:23;;;;;;;7.13;2.05;;;12.40;99.90;;;;;;4981662;28;20057;-85
2022/09/15 05:55:54;;;;;;;8.15;2.13;;;12.50;99.90;;;;;;4996715;28;20104;-85
2022/09/15 05:58:20;;;;;;;9.68;2.58;;;12.60;99.90;;;;;;5013313;28;20136;-85
2022/09/15 06:00:45;;;;;;;7.53;2.17;;;12.70;99.90;;;;;;4980742;28;20144;-85
2022/09/15 06:03:15;;;;;;;5.72;1.80;;;12.60;99.90;;;;;;4996822;28;20441;-86
2022/09/15 06:05:41;;;;;;;10.18;2.67;;;12.70;99.90;;;;;;4996808;28;20137;-86
2022/09/15 06:08:08;;;;;;;12.25;2.10;;;12.80;99.90;;;;;;5012749;28;20052;-86
2022/09/15 06:10:34;;;;;;;10.68;2.30;;;12.80;99.90;;;;;;4980581;28;20397;-85
2022/09/15 06:12:59;;;;;;;9.05;2.13;;;12.90;99.90;;;;;;5013389;28;20046;-85
2022/09/15 06:15:25;;;;;;;9.88;2.10;;;12.90;99.90;;;;;;4998127;28;20104;-85
2022/09/15 06:17:51;;;;;;;7.20;1.90;;;13.00;99.90;;;;;;5013415;28;20053;-85
2022/09/15 06:20:18;;;;;;;8.48;2.05;;;13.00;99.90;;;;;;5012664;28;20126;-84
2022/09/15 06:22:44;;;;;;;7.05;1.77;;;13.00;99.90;;;;;;5012971;28;20049;-84
2022/09/15 06:25:12;;;;;;;8.15;2.15;;;13.10;99.90;;;;;;4996590;28;20041;-87
2022/09/15 06:27:41;;;;;;;11.43;2.25;;;13.10;99.90;;;;;;4996027;28;20048;-86
2022/09/15 06:30:09;;;;;;;7.75;1.75;;;13.20;99.90;;;;;;5012282;28;20064;-87
2022/09/15 06:32:35;;;;;;;7.47;1.85;;;13.30;99.90;;;;;;5012706;28;20057;-86
2022/09/15 06:35:06;;;;;;;8.65;1.95;;;13.40;99.90;;;;;;4996473;28;20048;-88
2022/09/15 06:37:35;;;;;;;5.80;1.35;;;13.50;99.90;;;;;;4997089;28;20466;-88
2022/09/15 06:40:03;;;;;;;10.73;2.30;;;13.60;99.90;;;;;;4996358;28;20077;-86
2022/09/15 06:42:31;;;;;;;14.52;2.83;;;13.60;99.90;;;;;;4980213;28;20469;-87
2022/09/15 06:44:57;;;;;;;5.55;1.92;;;13.60;99.90;;;;;;5012938;28;20370;-85
2022/09/15 06:47:35;;;;;;;;;;;;;;;;;;;;;
2022/09/15 06:50:08;;;;;;;8.38;2.30;;;13.70;99.90;;;;;;4998675;28;20046;-86
2022/09/15 06:52:35;;;;;;;8.75;2.03;;;13.70;99.90;;;;;;5012679;28;20046;-85
2022/09/15 06:55:00;;;;;;;7.75;1.98;;;13.80;99.90;;;;;;5011964;28;20132;-86
2022/09/15 06:57:29;;;;;;;8.50;2.10;;;13.70;99.90;;;;;;4996283;28;20512;-85
2022/09/15 06:59:54;;;;;;;12.23;2.03;;;13.80;99.90;;;;;;4996016;28;20056;-87
2022/09/15 07:02:20;;;;;;;9.73;2.10;;;13.80;99.90;;;;;;5013046;28;20050;-86
2022/09/15 07:04:46;;;;;;;10.77;2.20;;;13.90;99.90;;;;;;5012608;28;20053;-87
2022/09/15 07:07:12;;;;;;;7.15;1.80;;;13.80;99.90;;;;;;4996192;28;20042;-85
2022/09/15 07:09:38;;;;;;;8.73;2.03;;;13.90;99.90;;;;;;5012239;28;20458;-88
2022/09/15 07:12:04;;;;;;;7.43;1.80;;;13.90;99.90;;;;;;4997292;28;20403;-89
2022/09/15 07:14:29;;;;;;;8.35;1.80;;;14.00;99.90;;;;;;4999712;28;20096;-87
2022/09/15 07:17:08;;;;;;;6.80;1.80;;;14.00;99.90;;;;;;5015908;28;20128;-89
2022/09/15 07:19:37;;;;;;;7.70;2.20;;;14.10;99.90;;;;;;4998599;28;20052;-88
2022/09/15 07:22:23;;;;;;;10.07;1.98;;;14.10;99.90;;;;;;4999125;28;20049;-88
2022/09/15 07:24:54;;;;;;;9.35;1.73;;;14.20;99.90;;;;;;4969414;28;20042;-87
2022/09/15 07:27:30;;;;;;;6.47;2.08;;;14.20;99.90;;;;;;4999951;28;20385;-88
2022/09/15 07:29:59;;;;;;;7.75;2.22;;;14.30;99.90;;;;;;4967886;28;20060;-88
2022/09/15 07:32:27;;;;;;;8.20;1.88;;;14.50;99.90;;;;;;4999245;28;20368;-88
2022/09/15 07:35:08;;;;;;;;;;;;;;;;;;;;;
2022/09/15 07:37:40;;;;;;;8.35;1.65;;;14.70;99.90;;;;;;5001460;28;20485;-86
2022/09/15 07:40:06;;;;;;;10.90;2.15;;;14.70;99.90;;;;;;5014860;28;20511;-87
2022/09/15 07:42:40;;;;;;;9.57;1.85;;;14.80;99.90;;;;;;4983721;28;20054;-87
2022/09/15 07:45:06;;;;;;;7.82;1.70;;;14.80;99.90;;;;;;5015723;28;20061;-87
2022/09/15 07:47:35;;;;;;;7.47;1.50;;;14.90;99.90;;;;;;4966708;28;20072;-87
2022/09/15 07:50:16;;;;;;;8.85;2.53;;;15.00;99.90;;;;;;4982746;28;20149;-87
2022/09/15 07:52:42;;;;;;;6.82;1.58;;;15.00;99.90;;;;;;4999696;28;20054;-88
2022/09/15 07:55:08;;;;;;;5.95;1.80;;;15.00;99.90;;;;;;5015177;28;20050;-88
2022/09/15 07:57:34;;;;;;;8.30;1.90;;;15.10;99.90;;;;;;5015215;28;20046;-86
2022/09/15 08:00:01;;;;;;;13.20;2.03;;;15.10;99.90;;;;;;4998856;28;20052;-87
2022/09/15 08:02:26;;;;;;;6.45;1.40;;;15.00;99.90;;;;;;5015609;28;20132;-86
2022/09/15 08:04:52;;;;;;;9.00;2.30;;;15.00;99.90;;;;;;5014914;28;20080;-86
2022/09/15 08:07:18;;;;;;;6.97;1.73;;;15.00;99.90;;;;;;4982303;28;20054;-86
2022/09/15 08:09:44;;;;;;;11.82;1.80;;;15.00;99.90;;;;;;4998562;28;20053;-86
2022/09/15 08:12:09;;;;;;;8.00;1.52;;;15.10;99.90;;;;;;5015365;28;20061;-86
2022/09/15 08:14:35;;;;;;;10.65;1.52;;;15.20;99.90;;;;;;4982488;28;20053;-86
2022/09/15 08:17:03;;;;;;;5.72;1.27;;;15.30;99.90;;;;;;4998424;28;20520;-86
2022/09/15 08:19:34;;;;;;;9.52;2.22;;;15.30;99.90;;;;;;5015698;28;20046;-87
2022/09/15 08:22:00;;;;;;;10.48;1.70;;;15.50;99.90;;;;;;5014909;28;20129;-86
2022/09/15 08:24:30;;;;;;;10.50;1.85;;;15.50;99.90;;;;;;5014612;28;20364;-86
2022/09/15 08:26:58;;;;;;;12.85;1.85;;;15.60;99.90;;;;;;4998323;28;20046;-85
2022/09/15 08:29:24;;;;;;;10.32;1.77;;;15.80;99.90;;;;;;4998146;28;20111;-86
2022/09/15 08:31:50;;;;;;;5.88;1.60;;;15.90;99.90;;;;;;4998283;28;20053;-85
2022/09/15 08:34:24;;;;;;;5.85;1.50;;;15.90;99.90;;;;;;5014781;28;20152;-87
2022/09/15 08:36:52;;;;;;;7.25;1.73;;;15.80;99.90;;;;;;4982845;28;20104;-86
2022/09/15 08:39:21;;;;;;;9.80;1.63;;;15.60;99.90;;;;;;4997717;28;20049;-86
2022/09/15 08:41:50;;;;;;;7.45;1.90;;;15.60;99.90;;;;;;4998007;28;20057;-85
2022/09/15 08:44:31;;;;;;;11.95;2.28;;;15.50;99.90;;;;;;5014380;28;20098;-87
2022/09/15 08:47:14;;;;;;;10.13;1.98;;;15.50;99.90;;;;;;4997819;28;20541;-88
2022/09/15 08:50:13;;;;;;;6.72;1.65;;;15.50;99.90;;;;;;5015171;28;20405;-88
2022/09/15 08:52:49;;;;;;;10.77;2.10;;;15.50;99.90;;;;;;4990030;28;20076;-86
2022/09/15 08:55:25;;;;;;;8.57;1.60;;;15.50;99.90;;;;;;4997217;28;20054;-86
2022/09/15 08:57:54;;;;;;;9.43;1.77;;;15.60;99.90;;;;;;5014959;28;20037;-86
2022/09/15 09:00:20;;;;;;;13.60;2.70;;;15.60;99.90;;;;;;4998685;28;20041;-85
2022/09/15 09:03:11;;;;;;;6.47;1.83;;;15.70;99.90;;;;;;4998513;28;20057;-85
2022/09/15 09:05:44;;;;;;;5.13;1.67;;;15.50;99.90;;;;;;4997414;28;20057;-85
2022/09/15 09:08:19;;;;;;;9.80;2.08;;;15.50;99.90;;;;;;4997974;28;20038;-86
2022/09/15 09:10:52;;;;;;;5.28;1.70;;;15.50;99.90;;;;;;4997833;28;20057;-85
2022/09/15 09:13:32;;;;;;;9.43;1.55;;;15.40;99.90;;;;;;5014238;28;20050;-86
2022/09/15 09:16:19;;;;;;;9.02;2.75;;;15.50;99.90;;;;;;4998005;28;20052;-85
2022/09/15 09:19:00;;;;;;;11.52;2.00;;;15.50;99.90;;;;;;4997507;28;20049;-85
2022/09/15 09:21:40;;;;;;;8.98;2.13;;;15.60;99.90;;;;;;4997518;28;20196;-85
2022/09/15 09:24:23;;;;;;;10.80;2.47;;;15.70;99.90;;;;;;4997538;28;20053;-86
2022/09/15 09:26:53;;;;;;;6.13;1.87;;;15.70;99.90;;;;;;4998085;28;20104;-86
2022/09/15 09:29:40;;;;;;;8.85;1.83;;;15.80;99.90;;;;;;4997147;28;20054;-87
2022/09/15 09:32:20;;;;;;;9.30;2.25;;;16.00;99.90;;;;;;4997643;28;20053;-86
2022/09/15 09:35:11;;;;;;;6.78;1.75;;;16.10;99.90;;;;;;4997378;28;20057;-86
2022/09/15 09:37:37;;;;;;;8.50;2.03;;;16.10;99.90;;;;;;5014465;28;20085;-85
2022/09/15 09:40:03;;;;;;;8.07;1.90;;;16.20;99.90;;;;;;4965005;28;20095;-86
2022/09/15 09:42:32;;;;;;;12.07;2.17;;;16.20;99.90;;;;;;4981364;28;20058;-86
2022/09/15 09:44:58;;;;;;;9.45;2.25;;;16.30;99.90;;;;;;4997846;28;20396;-86
2022/09/15 09:47:31;;;;;;;4.53;1.40;;;16.30;99.90;;;;;;4996817;28;20037;-87
2022/09/15 09:50:01;;;;;;;4.68;1.20;;;16.30;99.90;;;;;;4998092;28;20045;-87
2022/09/15 09:52:58;;;;;;;;;;;;;;;;;;;;;
2022/09/15 09:55:30;;;;;;;4.13;1.00;;;15.60;99.90;;;;;;4999806;28;20053;-87
2022/09/15 09:58:18;;;;;;;6.97;1.38;;;15.40;99.90;;;;;;4997423;28;20107;-88
2022/09/15 10:00:46;;;;;;;5.45;1.40;;;15.30;99.90;;;;;;5013793;28;20052;-88
2022/09/15 10:03:22;;;;;;;4.43;1.40;;;15.40;99.90;;;;;;5013184;28;20041;-87
2022/09/15 10:06:05;;;;;;;6.10;1.65;;;15.50;99.90;;;;;;4996974;28;20050;-87
2022/09/15 10:08:33;;;;;;;4.57;1.52;;;15.60;99.90;;;;;;5013610;28;20081;-87
2022/09/15 10:11:06;;;;;;;6.32;1.30;;;15.60;99.90;;;;;;4997167;28;20042;-87
2022/09/15 10:13:34;;;;;;;6.38;1.70;;;15.80;99.90;;;;;;5013104;28;20424;-86
2022/09/15 10:16:05;;;;;;;5.68;1.45;;;16.10;99.90;;;;;;5013246;28;20555;-88
2022/09/15 10:18:40;;;;;;;5.35;1.40;;;16.40;99.90;;;;;;4997707;28;20049;-87
2022/09/15 10:21:10;;;;;;;4.93;1.40;;;16.70;99.90;;;;;;4997915;28;20457;-88
2022/09/15 10:23:36;;;;;;;8.13;1.67;;;17.00;99.90;;;;;;4996797;28;20512;-86
2022/09/15 10:26:14;;;;;;;6.38;1.65;;;17.20;99.90;;;;;;5013500;28;20397;-86
2022/09/15 10:28:40;;;;;;;4.28;1.40;;;17.40;99.90;;;;;;4996438;28;20054;-87
2022/09/15 10:31:14;;;;;;;8.95;2.08;;;17.70;99.90;;;;;;4996895;28;20054;-86
2022/09/15 10:33:43;;;;;;;7.00;1.88;;;17.90;99.90;;;;;;5013698;28;20385;-87
2022/09/15 10:36:17;;;;;;;9.30;1.40;;;18.20;99.90;;;;;;4996974;28;20045;-87
2022/09/15 10:39:04;;;;;;;5.13;1.30;;;18.40;99.90;;;;;;4997404;28;20053;-87
2022/09/15 10:41:33;;;;;;;6.30;1.20;;;18.50;99.90;;;;;;4997096;28;20049;-87
2022/09/15 10:44:05;;;;;;;10.10;2.13;;;18.40;98.70;;;;;;4996958;28;20089;-86
2022/09/15 10:46:46;;;;;;;8.75;1.55;;;18.10;99.70;;;;;;4996567;28;20489;-88
2022/09/15 10:49:15;;;;;;;6.15;1.35;;;17.70;99.90;;;;;;5017734;28;20369;-87
2022/09/15 10:51:46;;;;;;;6.43;1.70;;;17.30;99.90;;;;;;5000487;28;20133;-87
2022/09/15 10:54:36;;;;;;;7.68;1.50;;;17.00;99.90;;;;;;4999910;28;20409;-89
2022/09/15 10:57:23;;;;;;;4.50;1.20;;;16.80;99.90;;;;;;4999963;28;20041;-88
2022/09/15 11:00:10;;;;;;;7.38;1.33;;;16.60;99.90;;;;;;4999521;28;20430;-88
2022/09/15 11:02:48;;;;;;;6.05;1.50;;;16.50;99.90;;;;;;5016415;28;20053;-86
2022/09/15 11:05:30;;;;;;;4.18;1.13;;;16.50;99.90;;;;;;5000121;28;20049;-86
2022/09/15 11:08:05;;;;;;;5.80;1.33;;;16.50;99.90;;;;;;5000295;28;20050;-87
2022/09/15 11:10:40;;;;;;;2.95;1.15;;;16.50;99.90;;;;;;4999871;28;20140;-87
2022/09/15 11:13:38;;;;;;;2.78;0.90;;;16.60;99.90;;;;;;5016713;28;20466;-87
2022/09/15 11:16:06;;;;;;;2.97;0.82;;;16.70;99.90;;;;;;4974527;28;20100;-87
2022/09/15 11:18:54;;;;;;;3.50;1.15;;;16.90;99.90;;;;;;5016112;28;20184;-87
2022/09/15 11:21:44;;;;;;;3.78;1.00;;;17.00;99.90;;;;;;4999766;28;20049;-90
2022/09/15 11:24:19;;;;;;;4.32;1.10;;;17.20;99.10;;;;;;4999954;28;20124;-87
2022/09/15 11:27:06;;;;;;;3.20;0.80;;;17.40;99.50;;;;;;4999407;28;20129;-87
2022/09/15 11:29:54;;;;;;;4.65;1.20;;;17.50;99.10;;;;;;4998690;28;20137;-87
2022/09/15 11:32:37;;;;;;;5.72;1.45;;;17.70;98.70;;;;;;4999351;28;20042;-87
2022/09/15 11:35:25;;;;;;;8.20;1.13;;;17.90;98.00;;;;;;4999590;28;20054;-87
2022/09/15 11:37:55;;;;;;;7.53;1.52;;;18.00;98.30;;;;;;5015820;28;20127;-88
2022/09/15 11:40:36;;;;;;;6.72;1.33;;;18.10;98.40;;;;;;5015386;28;20563;-86
2022/09/15 11:43:17;;;;;;;6.43;1.30;;;18.20;98.60;;;;;;4999507;28;20042;-87
2022/09/15 11:45:55;;;;;;;3.70;1.20;;;18.20;98.60;;;;;;5016087;28;20100;-87
2022/09/15 11:48:42;;;;;;;3.88;1.10;;;18.20;98.70;;;;;;4998918;28;20072;-89
2022/09/15 11:51:09;;;;;;;5.55;1.10;;;18.10;97.20;;;;;;4998985;28;20469;-86
2022/09/15 11:53:57;;;;;;;5.65;1.20;;;18.20;97.20;;;;;;5015389;28;20444;-86
2022/09/15 11:56:46;;;;;;;6.72;1.33;;;18.40;96.30;;;;;;4999048;28;20136;-86
2022/09/15 11:59:47;;;;;;;3.88;1.13;;;18.40;96.60;;;;;;4997934;28;20092;-86
2022/09/15 12:02:42;;;;;;;7.90;1.55;;;18.40;95.70;;;;;;5015382;28;20120;-86
2022/09/15 12:05:22;;;;;;;8.38;1.88;;;18.40;95.20;;;;;;4999204;28;20475;-85
2022/09/15 12:08:23;;;;;;;11.18;1.52;;;18.40;95.30;;;;;;4998617;28;20134;-86
2022/09/15 12:10:53;;;;;;;6.13;1.50;;;18.50;96.30;;;;;;4985700;28;20054;-87
2022/09/15 12:13:21;;;;;;;8.65;1.95;;;18.60;96.80;;;;;;5014872;28;20129;-87
2022/09/15 12:15:54;;;;;;;5.15;1.30;;;18.40;96.80;;;;;;5014751;28;20053;-89
2022/09/15 12:18:37;;;;;;;6.22;1.67;;;18.30;96.10;;;;;;4982668;28;20084;-86
2022/09/15 12:21:35;;;;;;;3.90;1.13;;;18.10;95.70;;;;;;4999232;28;20135;-86
2022/09/15 12:24:24;;;;;;;7.93;1.20;;;17.80;95.90;;;;;;4999144;28;20056;-86
2022/09/15 12:26:52;;;;;;;4.80;0.93;;;17.70;95.80;;;;;;4998922;28;20045;-86
2022/09/15 12:29:27;;;;;;;2.72;0.93;;;17.60;95.70;;;;;;4997928;28;20493;-87
2022/09/15 12:32:20;;;;;;;4.47;1.40;;;17.50;95.20;;;;;;4998322;28;20563;-87
2022/09/15 12:35:23;;;;;;;3.88;1.00;;;17.50;94.60;;;;;;4998418;28;20064;-85
2022/09/15 12:37:55;;;;;;;5.25;1.35;;;17.40;94.80;;;;;;4998958;28;20377;-86
2022/09/15 12:40:37;;;;;;;3.88;1.20;;;17.70;95.20;;;;;;4981106;28;20060;-86
2022/09/15 12:43:15;;;;;;;2.42;0.88;;;17.80;94.70;;;;;;4997852;28;20128;-86
2022/09/15 12:45:45;;;;;;;76.03;8.90;;;17.90;94.40;;;;;;5013949;28;20100;-85
2022/09/15 12:48:21;;;;;;;15.25;2.50;;;17.80;94.80;;;;;;5015799;28;20103;-87
2022/09/15 12:50:57;;;;;;;8.05;1.40;;;17.80;95.00;;;;;;5015009;28;20046;-85
2022/09/15 12:53:33;;;;;;;6.68;1.33;;;17.80;95.60;;;;;;5015029;28;20054;-85
2022/09/15 12:56:06;;;;;;;5.88;1.20;;;17.70;96.00;;;;;;5014090;28;20046;-85
2022/09/15 12:58:45;;;;;;;5.90;1.20;;;17.70;95.90;;;;;;4998542;28;20081;-85
2022/09/15 13:01:17;;;;;;;6.40;1.20;;;17.70;95.60;;;;;;5014394;28;20050;-85
2022/09/15 13:03:44;;;;;;;4.25;0.85;;;17.90;95.50;;;;;;4997893;28;20393;-84
2022/09/15 13:06:09;;;;;;;5.63;1.40;;;18.00;95.10;;;;;;5014244;28;20046;-85
2022/09/15 13:08:35;;;;;;;6.47;1.50;;;18.30;95.00;;;;;;4997578;28;20058;-85
2022/09/15 13:11:14;;;;;;;4.00;0.90;;;18.60;95.00;;;;;;4997469;28;20053;-84
2022/09/15 13:14:07;;;;;;;3.35;1.10;;;18.70;94.80;;;;;;5013747;28;20041;-85
2022/09/15 13:17:21;;;;;;;5.43;1.50;;;18.70;94.50;;;;;;4998223;28;20527;-91